createdAt,value
2018-12-16T00:01:09.068Z,9.77
2018-12-16T00:03:35.050Z,12.27
2018-12-16T00:06:00.998Z,8.90
2018-12-16T00:08:26.957Z,7.40
2018-12-16T00:10:52.947Z,9.80
2018-12-16T00:13:18.951Z,13.57
2018-12-16T00:15:44.924Z,13.93
2018-12-16T00:18:10.897Z,13.90
2018-12-16T00:20:36.931Z,7.07
2018-12-16T00:23:02.879Z,16.80
2018-12-16T00:25:28.890Z,16.53
2018-12-16T00:27:54.831Z,12.03
2018-12-16T00:30:20.853Z,7.50
2018-12-16T00:32:46.830Z,8.63
2018-12-16T00:35:12.815Z,10.60
2018-12-16T00:37:39.526Z,12.63
2018-12-16T00:40:05.588Z,8.80
2018-12-16T00:42:31.678Z,13.73
2018-12-16T00:44:57.655Z,15.87
2018-12-16T00:47:23.605Z,11.77
2018-12-16T00:49:49.580Z,13.03
2018-12-16T00:52:15.520Z,13.40
2018-12-16T00:54:42.237Z,15.10
2018-12-16T00:57:08.171Z,11.77
2018-12-16T00:59:34.866Z,10.57
2018-12-16T01:02:00.851Z,9.67
2018-12-16T01:04:26.796Z,13.33
2018-12-16T01:06:52.762Z,11.73
2018-12-16T01:09:18.704Z,10.47
2018-12-16T01:11:45.403Z,15.53
2018-12-16T01:14:11.359Z,13.30
2018-12-16T01:16:38.084Z,8.67
2018-12-16T01:19:04.044Z,9.27
2018-12-16T01:21:30.022Z,11.03
2018-12-16T01:23:55.967Z,14.80
2018-12-16T01:26:21.931Z,10.17
2018-12-16T01:28:47.876Z,10.50
2018-12-16T01:31:13.878Z,11.27
2018-12-16T01:33:39.825Z,12.27
2018-12-16T01:36:05.798Z,14.73
2018-12-16T01:38:31.787Z,5.43
2018-12-16T01:40:58.504Z,14.03
2018-12-16T01:43:24.478Z,9.53
2018-12-16T01:45:51.168Z,13.13
2018-12-16T01:48:17.158Z,12.97
2018-12-16T01:50:43.112Z,12.37
2018-12-16T01:53:09.096Z,10.60
2018-12-16T01:55:35.057Z,7.70
2018-12-16T01:58:01.061Z,7.37
2018-12-16T02:00:27.023Z,10.07
2018-12-16T02:02:53.016Z,10.60
2018-12-16T02:05:18.964Z,13.10
2018-12-16T02:07:44.950Z,12.47
2018-12-16T02:10:10.933Z,8.60
2018-12-16T02:12:37.668Z,5.80
2018-12-16T02:15:04.370Z,9.60
2018-12-16T02:17:30.367Z,11.33
2018-12-16T02:19:56.335Z,14.37
2018-12-16T02:22:22.287Z,16.97
2018-12-16T02:24:49.005Z,12.23
2018-12-16T02:27:14.952Z,11.80
2018-12-16T02:29:41.665Z,12.13
2018-12-16T02:32:07.646Z,11.83
2018-12-16T02:34:33.634Z,9.63
2018-12-16T02:37:00.320Z,13.97
2018-12-16T02:39:26.303Z,12.30
2018-12-16T02:41:52.987Z,9.57
2018-12-16T02:44:18.963Z,8.37
2018-12-16T02:46:45.660Z,8.70
2018-12-16T02:49:11.629Z,8.83
2018-12-16T02:51:37.582Z,11.87
2018-12-16T02:54:03.552Z,10.07
2018-12-16T02:56:30.240Z,13.03
2018-12-16T02:58:56.207Z,17.80
2018-12-16T03:01:22.928Z,14.07
2018-12-16T03:03:48.913Z,10.07
2018-12-16T03:06:14.905Z,14.93
2018-12-16T03:08:41.604Z,11.57
2018-12-16T03:11:07.589Z,8.57
2018-12-16T03:13:33.535Z,9.30
2018-12-16T03:15:59.535Z,11.63
2018-12-16T03:18:25.492Z,10.47
2018-12-16T03:20:51.478Z,10.77
2018-12-16T03:23:17.431Z,17.47
2018-12-16T03:25:43.438Z,9.60
2018-12-16T03:28:09.389Z,6.57
2018-12-16T03:30:35.369Z,8.40
2018-12-16T03:33:01.329Z,9.77
2018-12-16T03:35:27.317Z,9.80
2018-12-16T03:37:53.341Z,8.73
2018-12-16T03:40:19.307Z,10.47
2018-12-16T03:42:45.305Z,11.20
2018-12-16T03:45:11.273Z,9.30
2018-12-16T03:47:37.248Z,9.57
2018-12-16T03:50:03.214Z,14.67
2018-12-16T03:52:29.201Z,13.37
2018-12-16T03:54:55.165Z,11.77
2018-12-16T03:57:21.192Z,12.10
2018-12-16T03:59:47.933Z,10.97
2018-12-16T04:02:13.907Z,11.97
2018-12-16T04:04:39.878Z,9.07
2018-12-16T04:07:05.848Z,13.23
2018-12-16T04:09:31.828Z,12.00
2018-12-16T04:11:58.564Z,15.40
2018-12-16T04:14:25.256Z,8.67
2018-12-16T04:16:51.212Z,13.90
2018-12-16T04:19:17.196Z,11.53
2018-12-16T04:21:43.143Z,8.03
2018-12-16T04:24:09.130Z,13.07
2018-12-16T04:26:35.083Z,8.73
2018-12-16T04:29:01.056Z,10.37
2018-12-16T04:31:27.745Z,10.47
2018-12-16T04:33:53.725Z,13.87
2018-12-16T04:36:20.415Z,10.93
2018-12-16T04:38:46.412Z,9.23
2018-12-16T04:41:12.387Z,9.10
2018-12-16T04:43:39.100Z,13.33
2018-12-16T04:46:05.787Z,10.73
2018-12-16T04:48:31.801Z,12.60
2018-12-16T04:50:58.486Z,15.20
2018-12-16T04:53:24.477Z,10.20
2018-12-16T04:55:50.460Z,12.53
2018-12-16T04:58:16.414Z,16.83
2018-12-16T05:00:42.410Z,9.60
2018-12-16T05:03:08.367Z,10.17
2018-12-16T05:05:34.346Z,13.00
2018-12-16T05:08:00.324Z,11.93
2018-12-16T05:10:26.310Z,13.77
2018-12-16T05:12:52.256Z,10.23
2018-12-16T05:15:18.239Z,11.80
2018-12-16T05:17:44.192Z,12.03
2018-12-16T05:20:10.899Z,10.00
2018-12-16T05:22:36.850Z,9.77
2018-12-16T05:25:03.598Z,9.00
2018-12-16T05:27:30.288Z,12.97
2018-12-16T05:29:56.242Z,8.90
2018-12-16T05:32:22.179Z,12.27
2018-12-16T05:34:48.156Z,8.53
2018-12-16T05:37:14.104Z,14.43
2018-12-16T05:39:40.090Z,11.73
2018-12-16T05:42:06.060Z,8.37
2018-12-16T05:44:32.792Z,9.90
2018-12-16T05:46:59.503Z,10.63
2018-12-16T05:49:25.444Z,8.97
2018-12-16T05:51:51.433Z,13.57
2018-12-16T05:54:17.391Z,8.97
2018-12-16T05:56:43.391Z,8.23
2018-12-16T05:59:09.337Z,6.63
2018-12-16T06:01:35.327Z,14.63
2018-12-16T06:04:01.282Z,10.60
2018-12-16T06:06:28.028Z,13.10
2018-12-16T06:08:53.981Z,8.40
2018-12-16T06:11:19.991Z,14.83
2018-12-16T06:13:45.973Z,13.03
2018-12-16T06:16:11.960Z,10.30
2018-12-16T06:18:37.912Z,12.47
2018-12-16T06:21:04.731Z,11.93
2018-12-16T06:23:30.687Z,13.90
2018-12-16T06:25:56.647Z,9.07
2018-12-16T06:28:23.354Z,10.73
2018-12-16T06:30:49.291Z,11.43
2018-12-16T06:33:16.029Z,7.37
2018-12-16T06:35:41.993Z,13.13
2018-12-16T06:38:07.974Z,11.83
2018-12-16T06:40:33.924Z,16.87
2018-12-16T06:42:59.908Z,12.87
2018-12-16T06:45:26.649Z,9.00
2018-12-16T06:47:52.636Z,9.63
2018-12-16T06:50:18.577Z,10.77
2018-12-16T06:52:44.609Z,12.17
2018-12-16T06:55:10.562Z,7.70
2018-12-16T06:57:37.301Z,9.23
2018-12-16T07:00:04.014Z,13.23
2018-12-16T07:02:30.758Z,11.60
2018-12-16T07:04:56.747Z,8.43
2018-12-16T07:07:22.726Z,16.13
2018-12-16T07:09:49.455Z,11.30
2018-12-16T07:12:15.428Z,11.63
2018-12-16T07:14:41.432Z,10.87
2018-12-16T07:17:07.391Z,13.90
2018-12-16T07:19:33.355Z,11.13
2018-12-16T07:22:00.078Z,10.70
2018-12-16T07:24:26.054Z,9.20
2018-12-16T07:26:52.026Z,10.57
2018-12-16T07:29:18.053Z,14.27
2018-12-16T07:31:44.017Z,14.93
2018-12-16T07:34:10.000Z,12.20
2018-12-16T07:36:36.739Z,12.33
2018-12-16T07:39:03.453Z,10.77
2018-12-16T07:41:29.462Z,8.10
2018-12-16T07:43:55.423Z,13.60
2018-12-16T07:46:21.401Z,13.30
2018-12-16T07:48:47.368Z,12.80
2018-12-16T07:51:13.344Z,21.25
2018-12-16T07:53:39.340Z,13.47
2018-12-16T07:56:06.074Z,11.27
2018-12-16T07:58:32.771Z,16.10
2018-12-16T08:00:58.760Z,8.77
2018-12-16T08:03:24.717Z,14.67
2018-12-16T08:05:50.695Z,13.97
2018-12-16T08:08:16.648Z,14.73
2018-12-16T08:10:42.648Z,11.50
2018-12-16T08:13:10.125Z,10.83
2018-12-16T08:15:36.167Z,13.03
2018-12-16T08:18:02.165Z,8.50
2018-12-16T08:20:28.120Z,15.63
2018-12-16T08:22:54.110Z,13.97
2018-12-16T08:25:20.080Z,11.27
2018-12-16T08:27:46.090Z,14.77
2018-12-16T08:30:12.045Z,12.20
2018-12-16T08:32:38.768Z,13.87
2018-12-16T08:35:04.726Z,11.17
2018-12-16T08:37:30.704Z,20.70
2018-12-16T08:39:56.692Z,11.20
2018-12-16T08:42:22.710Z,11.73
2018-12-16T08:44:48.639Z,17.07
2018-12-16T08:47:14.609Z,15.43
2018-12-16T08:49:40.561Z,13.40
2018-12-16T08:52:06.543Z,14.90
2018-12-16T08:54:32.500Z,14.80
2018-12-16T08:56:58.460Z,13.73
2018-12-16T08:59:24.469Z,12.93
2018-12-16T09:01:50.445Z,11.33
2018-12-16T09:04:16.417Z,14.93
2018-12-16T09:06:42.370Z,11.10
2018-12-16T09:09:08.355Z,12.93
2018-12-16T09:11:34.340Z,12.73
2018-12-16T09:14:01.096Z,16.77
2018-12-16T09:16:27.096Z,19.97
2018-12-16T09:18:53.831Z,18.30
2018-12-16T09:21:19.801Z,15.23
2018-12-16T09:23:45.787Z,18.97
2018-12-16T09:26:12.490Z,18.47
2018-12-16T09:28:38.470Z,15.03
2018-12-16T09:31:04.443Z,12.63
2018-12-16T09:33:30.404Z,15.37
2018-12-16T09:35:57.148Z,12.70
2018-12-16T09:38:23.114Z,14.93
2018-12-16T09:40:49.107Z,13.77
2018-12-16T09:43:15.067Z,12.33
2018-12-16T09:45:41.046Z,14.87
2018-12-16T09:48:06.993Z,16.83
2018-12-16T09:50:32.959Z,12.60
2018-12-16T09:52:58.912Z,15.27
2018-12-16T09:55:24.889Z,18.07
2018-12-16T09:57:50.844Z,14.60
2018-12-16T10:00:17.568Z,15.43
2018-12-16T10:02:43.523Z,17.40
2018-12-16T10:05:10.286Z,13.20
2018-12-16T10:07:36.259Z,12.70
2018-12-16T10:10:02.228Z,13.90
2018-12-16T10:12:28.173Z,11.43
2018-12-16T10:14:54.128Z,13.60
2018-12-16T10:17:20.877Z,12.90
2018-12-16T10:19:47.581Z,16.87
2018-12-16T10:22:13.555Z,14.30
2018-12-16T10:24:39.518Z,12.20
2018-12-16T10:27:05.501Z,16.37
2018-12-16T10:29:31.476Z,14.63
2018-12-16T10:31:57.494Z,17.83
2018-12-16T10:34:23.484Z,13.03
2018-12-16T10:36:49.484Z,10.47
2018-12-16T10:39:16.205Z,15.67
2018-12-16T10:41:42.952Z,12.40
2018-12-16T10:44:08.924Z,11.63
2018-12-16T10:46:34.898Z,13.60
2018-12-16T10:49:04.752Z,16.70
2018-12-16T10:51:28.458Z,15.77
2018-12-16T10:53:54.396Z,11.93
2018-12-16T10:56:20.364Z,11.40
2018-12-16T10:58:46.361Z,16.40
2018-12-16T11:01:12.350Z,15.33
2018-12-16T11:03:38.347Z,13.60
2018-12-16T11:06:04.302Z,15.67
2018-12-16T11:08:31.059Z,9.97
2018-12-16T11:10:57.083Z,12.10
2018-12-16T11:13:23.812Z,15.07
2018-12-16T11:15:49.765Z,11.53
2018-12-16T11:18:15.755Z,17.87
2018-12-16T11:20:41.723Z,16.60
2018-12-16T11:23:07.733Z,13.37
2018-12-16T11:25:33.696Z,16.93
2018-12-16T11:27:59.671Z,14.23
2018-12-16T11:30:26.363Z,15.07
2018-12-16T11:32:52.351Z,10.30
2018-12-16T11:35:18.300Z,15.57
2018-12-16T11:37:44.312Z,15.33
2018-12-16T11:40:10.286Z,14.63
2018-12-16T11:42:36.996Z,21.57
2018-12-16T11:45:02.987Z,13.90
2018-12-16T11:47:29.001Z,17.07
2018-12-16T11:49:54.979Z,13.67
2018-12-16T11:52:20.958Z,15.07
2018-12-16T11:54:46.940Z,14.43
2018-12-16T11:57:12.897Z,19.97
2018-12-16T11:59:38.886Z,15.93
2018-12-16T12:02:04.882Z,15.40
2018-12-16T12:04:30.902Z,23.63
2018-12-16T12:06:56.868Z,13.50
2018-12-16T12:09:23.602Z,14.73
2018-12-16T12:11:50.307Z,11.77
2018-12-16T12:14:16.393Z,15.57
2018-12-16T12:16:42.374Z,13.93
2018-12-16T12:19:09.109Z,15.17
2018-12-16T12:21:35.100Z,15.57
2018-12-16T12:24:01.139Z,12.77
2018-12-16T12:26:27.214Z,19.97
2018-12-16T12:28:53.177Z,16.73
2018-12-16T12:31:19.185Z,15.00
2018-12-16T12:33:45.138Z,15.13
2018-12-16T12:36:11.114Z,17.83
2018-12-16T12:38:37.111Z,18.83
2018-12-16T12:41:03.862Z,13.43
2018-12-16T12:43:29.848Z,23.03
2018-12-16T12:45:55.836Z,15.03
2018-12-16T12:48:21.798Z,15.70
2018-12-16T12:50:47.765Z,12.20
2018-12-16T12:53:13.753Z,14.77
2018-12-16T12:55:39.714Z,17.07
2018-12-16T12:58:05.708Z,13.27
2018-12-16T13:00:32.404Z,13.60
2018-12-16T13:02:58.411Z,11.93
2018-12-16T13:05:24.389Z,16.00
2018-12-16T13:07:50.384Z,12.10
2018-12-16T13:10:16.362Z,14.13
2018-12-16T13:12:42.382Z,14.93
2018-12-16T13:15:09.095Z,19.07
2018-12-16T13:17:35.072Z,11.77
2018-12-16T13:20:01.026Z,14.73
2018-12-16T13:22:27.017Z,17.50
2018-12-16T13:24:52.975Z,12.43
2018-12-16T13:27:18.965Z,19.27
2018-12-16T13:29:44.942Z,19.40
2018-12-16T13:32:11.660Z,15.23
2018-12-16T13:34:37.632Z,22.67
2018-12-16T13:37:03.593Z,15.23
2018-12-16T13:39:29.575Z,13.53
2018-12-16T13:41:55.535Z,13.67
2018-12-16T13:44:21.553Z,15.90
2018-12-16T13:46:47.534Z,15.67
2018-12-16T13:49:14.262Z,13.20
2018-12-16T13:51:40.981Z,16.73
2018-12-16T13:54:06.987Z,15.40
2018-12-16T13:56:32.964Z,17.37
2018-12-16T13:58:58.962Z,16.57
2018-12-16T14:01:25.732Z,17.37
2018-12-16T14:03:51.759Z,17.53
2018-12-16T14:06:17.734Z,14.37
2018-12-16T14:08:43.750Z,17.07
2018-12-16T14:11:09.719Z,14.07
2018-12-16T14:13:36.447Z,19.10
2018-12-16T14:16:02.428Z,17.17
2018-12-16T14:18:28.405Z,21.20
2018-12-16T14:20:54.401Z,12.70
2018-12-16T14:23:21.116Z,14.87
2018-12-16T14:25:48.061Z,15.63
2018-12-16T14:28:13.160Z,17.07
2018-12-16T14:30:39.169Z,21.33
2018-12-16T14:33:05.143Z,19.60
2018-12-16T14:35:31.116Z,16.57
2018-12-16T14:37:57.082Z,26.73
2018-12-16T14:40:23.828Z,16.17
2018-12-16T14:42:50.549Z,23.60
2018-12-16T14:45:16.520Z,23.37
2018-12-16T14:47:42.534Z,24.47
2018-12-16T14:50:09.239Z,16.80
2018-12-16T14:52:35.249Z,18.33
2018-12-16T14:55:01.226Z,22.90
2018-12-16T14:57:27.234Z,15.60
2018-12-16T14:59:53.211Z,19.33
2018-12-16T15:02:19.225Z,24.60
2018-12-16T15:04:45.215Z,16.10
2018-12-16T15:07:11.216Z,16.00
2018-12-16T15:09:37.931Z,19.20
2018-12-16T15:12:03.931Z,23.77
2018-12-16T15:14:29.908Z,35.87
2018-12-16T15:16:56.669Z,26.70
2018-12-16T15:19:22.658Z,21.10
2018-12-16T15:21:49.370Z,19.17
2018-12-16T15:24:15.380Z,23.63
2018-12-16T15:26:41.367Z,20.23
2018-12-16T15:29:07.355Z,16.07
2018-12-16T15:31:33.326Z,20.27
2018-12-16T15:33:59.327Z,18.57
2018-12-16T15:36:26.043Z,21.47
2018-12-16T15:38:52.039Z,25.63
2018-12-16T15:41:18.006Z,22.20
2018-12-16T15:43:44.725Z,23.37
2018-12-16T15:46:10.720Z,25.33
2018-12-16T15:48:36.711Z,23.27
2018-12-16T15:51:02.725Z,22.67
2018-12-16T15:53:29.428Z,19.53
2018-12-16T15:55:55.433Z,22.60
2018-12-16T15:58:21.393Z,19.17
2018-12-16T16:00:48.165Z,19.30
2018-12-16T16:03:14.143Z,20.87
2018-12-16T16:05:40.698Z,23.30
2018-12-16T16:08:07.435Z,20.40
2018-12-16T16:10:34.178Z,17.97
2018-12-16T16:13:00.899Z,28.40
2018-12-16T16:15:26.904Z,22.20
2018-12-16T16:17:53.380Z,17.77
2018-12-16T16:20:18.902Z,22.87
2018-12-16T16:22:45.628Z,16.77
2018-12-16T16:25:12.355Z,21.73
2018-12-16T16:27:38.357Z,22.87
2018-12-16T16:30:04.329Z,16.00
2018-12-16T16:32:31.102Z,21.10
2018-12-16T16:34:57.101Z,18.90
2018-12-16T16:37:23.849Z,24.50
2018-12-16T16:39:49.799Z,28.30
2018-12-16T16:42:15.793Z,22.30
2018-12-16T16:44:42.510Z,21.30
2018-12-16T16:47:09.255Z,21.57
2018-12-16T16:49:35.983Z,22.13
2018-12-16T16:52:01.983Z,22.33
2018-12-16T16:54:27.920Z,24.37
2018-12-16T16:56:53.905Z,26.93
2018-12-16T16:59:19.881Z,19.63
2018-12-16T17:01:46.615Z,28.13
2018-12-16T17:04:12.590Z,19.47
2018-12-16T17:06:38.553Z,24.03
2018-12-16T17:09:04.546Z,18.43
2018-12-16T17:11:30.514Z,23.87
2018-12-16T17:13:56.488Z,19.17
2018-12-16T17:16:22.457Z,21.67
2018-12-16T17:18:48.457Z,22.03
2018-12-16T17:21:14.410Z,33.03
2018-12-16T17:23:41.127Z,20.23
2018-12-16T17:26:07.123Z,24.47
2018-12-16T17:28:33.116Z,22.03
2018-12-16T17:30:59.086Z,19.83
2018-12-16T17:33:25.031Z,23.80
2018-12-16T17:35:51.022Z,21.00
2018-12-16T17:38:16.973Z,20.60
2018-12-16T17:40:43.001Z,21.23
2018-12-16T17:43:09.720Z,21.70
2018-12-16T17:45:35.782Z,25.60
2018-12-16T17:48:02.483Z,26.23
2018-12-16T17:50:28.466Z,26.83
2018-12-16T17:52:54.427Z,23.37
2018-12-16T17:55:20.413Z,26.67
2018-12-16T17:57:46.367Z,21.63
2018-12-16T18:00:12.366Z,26.20
2018-12-16T18:02:38.343Z,22.57
2018-12-16T18:05:04.334Z,19.27
2018-12-16T18:07:30.310Z,39.00
2018-12-16T18:09:57.050Z,26.83
2018-12-16T18:12:23.741Z,25.80
2018-12-16T18:14:49.715Z,30.13
2018-12-16T18:17:15.670Z,27.63
2018-12-16T18:19:41.663Z,35.07
2018-12-16T18:22:13.873Z,23.60
2018-12-16T18:24:33.718Z,26.80
2018-12-16T18:26:59.670Z,26.90
2018-12-16T18:29:25.651Z,27.80
2018-12-16T18:31:51.630Z,34.87
2018-12-16T18:34:17.600Z,23.80
2018-12-16T18:36:43.601Z,25.33
2018-12-16T18:39:10.306Z,34.73
2018-12-16T18:41:36.301Z,23.77
2018-12-16T18:44:02.275Z,28.20
2018-12-16T18:46:28.251Z,24.47
2018-12-16T18:48:54.218Z,26.77
2018-12-16T18:51:20.232Z,28.57
2018-12-16T18:53:46.199Z,26.80
2018-12-16T18:56:12.194Z,22.17
2018-12-16T18:58:38.142Z,22.67
2018-12-16T19:01:04.860Z,27.27
2018-12-16T19:03:31.574Z,21.47
2018-12-16T19:05:57.568Z,22.87
2018-12-16T19:08:23.518Z,22.40
2018-12-16T19:10:49.514Z,29.63
2018-12-16T19:13:15.516Z,33.63
2018-12-16T19:15:41.541Z,26.47
2018-12-16T19:18:07.639Z,27.97
2018-12-16T19:20:33.686Z,24.40
2018-12-16T19:22:59.662Z,26.93
2018-12-16T19:25:25.668Z,22.77
2018-12-16T19:27:51.636Z,23.53
2018-12-16T19:30:18.431Z,24.43
2018-12-16T19:32:44.397Z,23.73
2018-12-16T19:35:10.399Z,21.30
2018-12-16T19:37:36.365Z,21.50
2018-12-16T19:40:02.348Z,29.57
2018-12-16T19:42:28.317Z,24.67
2018-12-16T19:44:54.288Z,24.97
2018-12-16T19:47:20.272Z,23.13
2018-12-16T19:49:46.262Z,27.13
2018-12-16T19:52:12.238Z,18.43
2018-12-16T19:54:38.203Z,22.20
2018-12-16T19:57:05.425Z,24.40
2018-12-16T19:59:30.967Z,23.93
2018-12-16T20:01:56.935Z,22.13
2018-12-16T20:04:22.907Z,21.07
2018-12-16T20:06:48.889Z,22.10
2018-12-16T20:09:14.851Z,24.33
2018-12-16T20:11:40.857Z,18.50
2018-12-16T20:14:06.813Z,20.73
2018-12-16T20:16:33.545Z,19.20
2018-12-16T20:19:00.260Z,18.73
2018-12-16T20:21:26.237Z,20.53
2018-12-16T20:23:52.190Z,17.87
2018-12-16T20:26:18.181Z,16.00
2018-12-16T20:28:44.138Z,24.90
2018-12-16T20:31:10.152Z,18.13
2018-12-16T20:33:36.115Z,23.80
2018-12-16T20:36:02.091Z,21.80
2018-12-16T20:38:28.052Z,28.93
2018-12-16T20:40:54.018Z,28.27
2018-12-16T20:43:19.982Z,23.50
2018-12-16T20:45:45.964Z,19.90
2018-12-16T20:48:12.705Z,26.27
2018-12-16T20:50:38.907Z,23.27
2018-12-16T20:53:05.448Z,23.60
2018-12-16T20:55:32.123Z,22.07
2018-12-16T20:57:58.135Z,18.67
2018-12-16T21:00:24.074Z,25.77
2018-12-16T21:02:50.096Z,23.03
2018-12-16T21:05:16.087Z,22.10
2018-12-16T21:07:42.101Z,17.00
2018-12-16T21:10:08.787Z,23.27
2018-12-16T21:12:34.783Z,20.80
2018-12-16T21:15:00.748Z,20.23
2018-12-16T21:17:33.761Z,24.00
2018-12-16T21:20:00.466Z,22.20
2018-12-16T21:22:26.458Z,19.63
2018-12-16T21:24:52.506Z,20.00
2018-12-16T21:27:25.788Z,22.67
2018-12-16T21:29:45.236Z,19.63
2018-12-16T21:32:11.226Z,17.97
2018-12-16T21:34:37.176Z,18.60
2018-12-16T21:37:04.252Z,16.67
2018-12-16T21:39:30.229Z,15.17
2018-12-16T21:41:56.984Z,20.23
2018-12-16T21:44:22.982Z,24.60
2018-12-16T21:46:49.006Z,22.37
2018-12-16T21:49:15.091Z,15.77
2018-12-16T21:51:41.865Z,22.20
2018-12-16T21:54:07.858Z,23.67
2018-12-16T21:56:33.850Z,20.90
2018-12-16T21:58:59.857Z,23.97
2018-12-16T22:01:26.572Z,22.47
2018-12-16T22:03:52.563Z,20.60
2018-12-16T22:06:18.560Z,13.53
2018-12-16T22:08:44.571Z,14.97
2018-12-16T22:11:11.270Z,19.57
2018-12-16T22:13:37.281Z,19.30
2018-12-16T22:16:03.247Z,20.73
2018-12-16T22:18:29.267Z,19.10
2018-12-16T22:20:55.247Z,19.37
2018-12-16T22:23:21.227Z,13.23
2018-12-16T22:25:47.962Z,18.40
2018-12-16T22:28:14.677Z,19.37
2018-12-16T22:30:40.660Z,22.67
2018-12-16T22:33:06.652Z,26.80
2018-12-16T22:35:33.402Z,14.63
2018-12-16T22:37:59.364Z,15.70
2018-12-16T22:40:26.675Z,24.23
2018-12-16T22:42:51.361Z,17.70
2018-12-16T22:45:17.357Z,21.43
2018-12-16T22:47:43.340Z,16.10
2018-12-16T22:50:10.077Z,15.80
2018-12-16T22:52:36.073Z,21.20
2018-12-16T22:55:02.819Z,22.37
2018-12-16T22:57:28.794Z,19.63
2018-12-16T22:59:54.767Z,20.27
2018-12-16T23:02:20.754Z,17.93
2018-12-16T23:04:46.720Z,16.23
2018-12-16T23:07:13.466Z,15.00
2018-12-16T23:09:39.431Z,14.90
2018-12-16T23:12:05.445Z,17.13
2018-12-16T23:14:31.411Z,15.97
2018-12-16T23:16:58.172Z,16.63
2018-12-16T23:19:24.122Z,18.40
2018-12-16T23:21:50.122Z,17.13
2018-12-16T23:24:16.122Z,13.27
2018-12-16T23:26:42.847Z,13.70
2018-12-16T23:29:08.812Z,16.80
2018-12-16T23:31:34.806Z,16.77
2018-12-16T23:34:01.510Z,16.47
2018-12-16T23:36:27.484Z,19.47
2018-12-16T23:38:53.466Z,18.03
2018-12-16T23:41:19.449Z,17.33
2018-12-16T23:43:45.428Z,21.37
2018-12-16T23:46:11.406Z,16.63
2018-12-16T23:48:37.437Z,18.47
2018-12-16T23:51:03.418Z,18.30
2018-12-16T23:53:29.405Z,19.60
2018-12-16T23:55:55.446Z,16.03
2018-12-16T23:58:22.184Z,17.13
